sensor_id;sensor_type;location;lat;lon;timestamp;P1;durP1;ratioP1;P2;durP2;ratioP2
70183;SDS011;57554;51.546;6.776;2023-07-13T00:02:22;6.28;;;1.65;;
70183;SDS011;57554;51.546;6.776;2023-07-13T00:04:48;9.60;;;1.65;;
70183;SDS011;57554;51.546;6.776;2023-07-13T00:07:14;22.17;;;1.75;;
70183;SDS011;57554;51.546;6.776;2023-07-13T00:09:39;9.00;;;1.77;;
70183;SDS011;57554;51.546;6.776;2023-07-13T00:12:19;7.93;;;1.52;;
70183;SDS011;57554;51.546;6.776;2023-07-13T00:14:59;9.02;;;1.60;;
70183;SDS011;57554;51.546;6.776;2023-07-13T00:17:27;7.28;;;1.40;;
70183;SDS011;57554;51.546;6.776;2023-07-13T00:19:54;5.53;;;1.42;;
70183;SDS011;57554;51.546;6.776;2023-07-13T00:22:21;9.32;;;1.48;;
70183;SDS011;57554;51.546;6.776;2023-07-13T00:24:50;10.43;;;1.70;;
70183;SDS011;57554;51.546;6.776;2023-07-13T00:27:17;7.60;;;1.50;;
70183;SDS011;57554;51.546;6.776;2023-07-13T00:29:42;7.20;;;1.55;;
70183;SDS011;57554;51.546;6.776;2023-07-13T00:32:08;7.10;;;1.40;;
70183;SDS011;57554;51.546;6.776;2023-07-13T00:34:34;6.38;;;1.45;;
70183;SDS011;57554;51.546;6.776;2023-07-13T00:37:00;8.00;;;1.65;;
70183;SDS011;57554;51.546;6.776;2023-07-13T00:39:26;7.80;;;1.67;;
70183;SDS011;57554;51.546;6.776;2023-07-13T00:41:52;9.02;;;1.90;;
70183;SDS011;57554;51.546;6.776;2023-07-13T00:44:18;8.15;;;1.63;;
70183;SDS011;57554;51.546;6.776;2023-07-13T00:46:45;8.65;;;2.08;;
70183;SDS011;57554;51.546;6.776;2023-07-13T00:49:12;8.00;;;1.83;;
70183;SDS011;57554;51.546;6.776;2023-07-13T00:51:49;7.10;;;1.60;;
70183;SDS011;57554;51.546;6.776;2023-07-13T00:54:24;8.00;;;1.95;;
70183;SDS011;57554;51.546;6.776;2023-07-13T00:56:57;8.30;;;1.70;;
70183;SDS011;57554;51.546;6.776;2023-07-13T00:59:26;5.90;;;1.30;;
70183;SDS011;57554;51.546;6.776;2023-07-13T01:01:52;7.28;;;1.60;;
70183;SDS011;57554;51.546;6.776;2023-07-13T01:04:19;8.93;;;1.67;;
70183;SDS011;57554;51.546;6.776;2023-07-13T01:06:45;6.95;;;1.52;;
70183;SDS011;57554;51.546;6.776;2023-07-13T01:09:12;7.60;;;1.65;;
70183;SDS011;57554;51.546;6.776;2023-07-13T01:11:38;7.13;;;1.52;;
70183;SDS011;57554;51.546;6.776;2023-07-13T01:14:04;5.70;;;1.70;;
70183;SDS011;57554;51.546;6.776;2023-07-13T01:16:31;7.75;;;1.60;;
70183;SDS011;57554;51.546;6.776;2023-07-13T01:18:58;9.10;;;1.80;;
70183;SDS011;57554;51.546;6.776;2023-07-13T01:21:26;7.47;;;1.40;;
70183;SDS011;57554;51.546;6.776;2023-07-13T01:23:53;8.82;;;1.83;;
70183;SDS011;57554;51.546;6.776;2023-07-13T01:26:19;7.25;;;1.80;;
70183;SDS011;57554;51.546;6.776;2023-07-13T01:28:44;5.78;;;1.77;;
70183;SDS011;57554;51.546;6.776;2023-07-13T01:31:10;5.82;;;1.30;;
70183;SDS011;57554;51.546;6.776;2023-07-13T01:33:37;7.45;;;1.60;;
70183;SDS011;57554;51.546;6.776;2023-07-13T01:36:05;8.85;;;1.38;;
70183;SDS011;57554;51.546;6.776;2023-07-13T01:38:35;6.60;;;1.83;;
70183;SDS011;57554;51.546;6.776;2023-07-13T01:41:01;6.85;;;1.50;;
70183;SDS011;57554;51.546;6.776;2023-07-13T01:43:27;8.60;;;1.67;;
70183;SDS011;57554;51.546;6.776;2023-07-13T01:45:53;8.10;;;1.75;;
70183;SDS011;57554;51.546;6.776;2023-07-13T01:48:18;7.30;;;1.38;;
70183;SDS011;57554;51.546;6.776;2023-07-13T01:50:45;9.23;;;1.60;;
70183;SDS011;57554;51.546;6.776;2023-07-13T01:53:10;5.72;;;1.52;;
70183;SDS011;57554;51.546;6.776;2023-07-13T01:55:36;8.68;;;1.73;;
70183;SDS011;57554;51.546;6.776;2023-07-13T01:58:03;9.77;;;1.70;;
70183;SDS011;57554;51.546;6.776;2023-07-13T02:00:29;12.75;;;2.67;;
70183;SDS011;57554;51.546;6.776;2023-07-13T02:02:55;7.80;;;1.65;;
70183;SDS011;57554;51.546;6.776;2023-07-13T02:05:21;8.48;;;1.65;;
70183;SDS011;57554;51.546;6.776;2023-07-13T02:07:46;10.23;;;1.95;;
70183;SDS011;57554;51.546;6.776;2023-07-13T02:10:12;9.80;;;1.50;;
70183;SDS011;57554;51.546;6.776;2023-07-13T02:12:38;7.25;;;1.70;;
70183;SDS011;57554;51.546;6.776;2023-07-13T02:15:04;9.20;;;1.83;;
70183;SDS011;57554;51.546;6.776;2023-07-13T02:17:30;7.82;;;1.58;;
70183;SDS011;57554;51.546;6.776;2023-07-13T02:19:57;7.22;;;1.63;;
70183;SDS011;57554;51.546;6.776;2023-07-13T02:22:22;6.45;;;1.65;;
70183;SDS011;57554;51.546;6.776;2023-07-13T02:24:48;7.90;;;1.52;;
70183;SDS011;57554;51.546;6.776;2023-07-13T02:27:14;7.95;;;1.63;;
70183;SDS011;57554;51.546;6.776;2023-07-13T02:29:40;6.93;;;1.67;;
70183;SDS011;57554;51.546;6.776;2023-07-13T02:32:05;9.52;;;1.60;;
70183;SDS011;57554;51.546;6.776;2023-07-13T02:34:31;7.45;;;1.77;;
70183;SDS011;57554;51.546;6.776;2023-07-13T02:36:57;7.55;;;1.80;;
70183;SDS011;57554;51.546;6.776;2023-07-13T02:39:22;8.73;;;1.75;;
70183;SDS011;57554;51.546;6.776;2023-07-13T02:41:48;9.73;;;2.20;;
70183;SDS011;57554;51.546;6.776;2023-07-13T02:44:14;8.07;;;1.60;;
70183;SDS011;57554;51.546;6.776;2023-07-13T02:46:40;7.13;;;1.58;;
70183;SDS011;57554;51.546;6.776;2023-07-13T02:49:05;7.75;;;1.75;;
70183;SDS011;57554;51.546;6.776;2023-07-13T02:51:31;8.57;;;1.55;;
70183;SDS011;57554;51.546;6.776;2023-07-13T02:53:59;7.45;;;1.88;;
70183;SDS011;57554;51.546;6.776;2023-07-13T02:56:26;7.70;;;1.83;;
70183;SDS011;57554;51.546;6.776;2023-07-13T02:58:53;7.50;;;1.73;;
70183;SDS011;57554;51.546;6.776;2023-07-13T03:01:20;6.72;;;2.15;;
70183;SDS011;57554;51.546;6.776;2023-07-13T03:03:46;7.47;;;2.10;;
70183;SDS011;57554;51.546;6.776;2023-07-13T03:06:13;6.75;;;1.73;;
70183;SDS011;57554;51.546;6.776;2023-07-13T03:08:39;7.60;;;1.75;;
70183;SDS011;57554;51.546;6.776;2023-07-13T03:11:07;6.88;;;2.05;;
70183;SDS011;57554;51.546;6.776;2023-07-13T03:13:35;7.60;;;2.13;;
70183;SDS011;57554;51.546;6.776;2023-07-13T03:16:02;7.40;;;1.90;;
70183;SDS011;57554;51.546;6.776;2023-07-13T03:18:28;8.77;;;1.90;;
70183;SDS011;57554;51.546;6.776;2023-07-13T03:20:54;11.52;;;2.38;;
70183;SDS011;57554;51.546;6.776;2023-07-13T03:23:20;7.68;;;1.73;;
70183;SDS011;57554;51.546;6.776;2023-07-13T03:25:46;11.15;;;2.22;;
70183;SDS011;57554;51.546;6.776;2023-07-13T03:28:12;9.80;;;2.38;;
70183;SDS011;57554;51.546;6.776;2023-07-13T03:30:38;9.13;;;1.98;;
70183;SDS011;57554;51.546;6.776;2023-07-13T03:33:04;6.13;;;2.03;;
70183;SDS011;57554;51.546;6.776;2023-07-13T03:35:30;10.52;;;1.80;;
70183;SDS011;57554;51.546;6.776;2023-07-13T03:37:57;8.07;;;1.63;;
70183;SDS011;57554;51.546;6.776;2023-07-13T03:40:24;10.10;;;2.00;;
70183;SDS011;57554;51.546;6.776;2023-07-13T03:42:51;12.88;;;2.00;;
70183;SDS011;57554;51.546;6.776;2023-07-13T03:45:16;10.05;;;1.80;;
70183;SDS011;57554;51.546;6.776;2023-07-13T03:47:42;10.77;;;1.90;;
70183;SDS011;57554;51.546;6.776;2023-07-13T03:50:08;10.15;;;1.95;;
70183;SDS011;57554;51.546;6.776;2023-07-13T03:52:34;14.80;;;2.38;;
70183;SDS011;57554;51.546;6.776;2023-07-13T03:54:59;9.88;;;2.28;;
70183;SDS011;57554;51.546;6.776;2023-07-13T03:57:25;9.57;;;2.20;;
70183;SDS011;57554;51.546;6.776;2023-07-13T03:59:51;6.43;;;2.03;;
70183;SDS011;57554;51.546;6.776;2023-07-13T04:02:16;10.32;;;2.03;;
70183;SDS011;57554;51.546;6.776;2023-07-13T04:04:42;9.27;;;2.15;;
70183;SDS011;57554;51.546;6.776;2023-07-13T04:07:08;8.10;;;1.92;;
70183;SDS011;57554;51.546;6.776;2023-07-13T04:09:34;8.73;;;2.15;;
70183;SDS011;57554;51.546;6.776;2023-07-13T04:12:01;9.13;;;2.53;;
70183;SDS011;57554;51.546;6.776;2023-07-13T04:14:27;8.88;;;2.03;;
70183;SDS011;57554;51.546;6.776;2023-07-13T04:16:52;9.95;;;2.10;;
70183;SDS011;57554;51.546;6.776;2023-07-13T04:19:19;7.40;;;1.88;;
70183;SDS011;57554;51.546;6.776;2023-07-13T04:21:45;8.27;;;2.40;;
70183;SDS011;57554;51.546;6.776;2023-07-13T04:24:10;7.95;;;2.03;;
70183;SDS011;57554;51.546;6.776;2023-07-13T04:26:36;8.68;;;1.98;;
70183;SDS011;57554;51.546;6.776;2023-07-13T04:29:03;9.18;;;2.33;;
70183;SDS011;57554;51.546;6.776;2023-07-13T04:31:30;9.30;;;2.63;;
70183;SDS011;57554;51.546;6.776;2023-07-13T04:33:56;11.32;;;2.17;;
70183;SDS011;57554;51.546;6.776;2023-07-13T04:36:21;10.40;;;2.10;;
70183;SDS011;57554;51.546;6.776;2023-07-13T04:38:47;14.48;;;2.30;;
70183;SDS011;57554;51.546;6.776;2023-07-13T04:41:13;9.35;;;2.20;;
70183;SDS011;57554;51.546;6.776;2023-07-13T04:43:40;9.18;;;2.05;;
70183;SDS011;57554;51.546;6.776;2023-07-13T04:46:11;6.75;;;2.22;;
70183;SDS011;57554;51.546;6.776;2023-07-13T04:48:38;9.68;;;2.20;;
70183;SDS011;57554;51.546;6.776;2023-07-13T04:51:03;12.05;;;2.20;;
70183;SDS011;57554;51.546;6.776;2023-07-13T04:53:29;8.27;;;2.08;;
70183;SDS011;57554;51.546;6.776;2023-07-13T04:55:55;10.38;;;2.65;;
70183;SDS011;57554;51.546;6.776;2023-07-13T04:58:22;9.48;;;2.40;;
70183;SDS011;57554;51.546;6.776;2023-07-13T05:00:48;7.88;;;2.33;;
70183;SDS011;57554;51.546;6.776;2023-07-13T05:03:14;11.45;;;2.40;;
70183;SDS011;57554;51.546;6.776;2023-07-13T05:05:40;11.23;;;2.55;;
70183;SDS011;57554;51.546;6.776;2023-07-13T05:08:05;8.85;;;2.45;;
70183;SDS011;57554;51.546;6.776;2023-07-13T05:10:32;10.45;;;2.65;;
70183;SDS011;57554;51.546;6.776;2023-07-13T05:12:58;14.00;;;3.25;;
70183;SDS011;57554;51.546;6.776;2023-07-13T05:15:23;6.28;;;2.17;;
70183;SDS011;57554;51.546;6.776;2023-07-13T05:17:50;7.65;;;2.30;;
70183;SDS011;57554;51.546;6.776;2023-07-13T05:20:17;11.25;;;2.75;;
70183;SDS011;57554;51.546;6.776;2023-07-13T05:22:43;11.23;;;2.35;;
70183;SDS011;57554;51.546;6.776;2023-07-13T05:25:11;12.25;;;3.08;;
70183;SDS011;57554;51.546;6.776;2023-07-13T05:27:38;9.93;;;2.67;;
70183;SDS011;57554;51.546;6.776;2023-07-13T05:30:04;10.80;;;2.90;;
70183;SDS011;57554;51.546;6.776;2023-07-13T05:32:30;11.27;;;2.92;;
70183;SDS011;57554;51.546;6.776;2023-07-13T05:34:56;10.38;;;2.83;;
70183;SDS011;57554;51.546;6.776;2023-07-13T05:37:21;10.23;;;2.85;;
70183;SDS011;57554;51.546;6.776;2023-07-13T05:39:47;12.45;;;3.00;;
70183;SDS011;57554;51.546;6.776;2023-07-13T05:42:12;13.15;;;2.90;;
70183;SDS011;57554;51.546;6.776;2023-07-13T05:44:38;12.20;;;3.22;;
70183;SDS011;57554;51.546;6.776;2023-07-13T05:47:04;12.30;;;3.20;;
70183;SDS011;57554;51.546;6.776;2023-07-13T05:49:30;11.48;;;3.17;;
70183;SDS011;57554;51.546;6.776;2023-07-13T05:51:55;12.55;;;2.97;;
70183;SDS011;57554;51.546;6.776;2023-07-13T05:54:21;10.30;;;3.17;;
70183;SDS011;57554;51.546;6.776;2023-07-13T05:56:47;11.00;;;3.05;;
70183;SDS011;57554;51.546;6.776;2023-07-13T05:59:12;10.73;;;4.05;;
70183;SDS011;57554;51.546;6.776;2023-07-13T06:01:38;14.48;;;3.33;;
70183;SDS011;57554;51.546;6.776;2023-07-13T06:04:04;13.60;;;3.40;;
70183;SDS011;57554;51.546;6.776;2023-07-13T06:06:29;13.93;;;3.83;;
70183;SDS011;57554;51.546;6.776;2023-07-13T06:08:55;12.18;;;3.08;;
70183;SDS011;57554;51.546;6.776;2023-07-13T06:11:22;13.45;;;3.70;;
70183;SDS011;57554;51.546;6.776;2023-07-13T06:13:49;12.00;;;3.25;;
70183;SDS011;57554;51.546;6.776;2023-07-13T06:16:15;12.73;;;3.20;;
70183;SDS011;57554;51.546;6.776;2023-07-13T06:18:42;10.23;;;3.30;;
70183;SDS011;57554;51.546;6.776;2023-07-13T06:21:19;13.30;;;3.40;;
70183;SDS011;57554;51.546;6.776;2023-07-13T06:23:46;12.05;;;3.30;;
70183;SDS011;57554;51.546;6.776;2023-07-13T06:26:15;13.13;;;3.72;;
70183;SDS011;57554;51.546;6.776;2023-07-13T06:28:41;15.82;;;3.75;;
70183;SDS011;57554;51.546;6.776;2023-07-13T06:31:07;16.15;;;4.43;;
70183;SDS011;57554;51.546;6.776;2023-07-13T06:33:34;11.50;;;3.45;;
70183;SDS011;57554;51.546;6.776;2023-07-13T06:36:00;12.95;;;4.10;;
70183;SDS011;57554;51.546;6.776;2023-07-13T06:38:27;16.65;;;3.70;;
70183;SDS011;57554;51.546;6.776;2023-07-13T06:40:52;13.13;;;3.50;;
70183;SDS011;57554;51.546;6.776;2023-07-13T06:43:18;12.45;;;3.30;;
70183;SDS011;57554;51.546;6.776;2023-07-13T06:45:45;13.38;;;3.50;;
70183;SDS011;57554;51.546;6.776;2023-07-13T06:48:14;13.43;;;3.65;;
70183;SDS011;57554;51.546;6.776;2023-07-13T06:50:41;12.05;;;3.70;;
70183;SDS011;57554;51.546;6.776;2023-07-13T06:53:07;13.30;;;3.63;;
70183;SDS011;57554;51.546;6.776;2023-07-13T06:55:33;13.98;;;4.15;;
70183;SDS011;57554;51.546;6.776;2023-07-13T06:57:59;14.25;;;4.07;;
70183;SDS011;57554;51.546;6.776;2023-07-13T07:00:24;14.02;;;4.00;;
70183;SDS011;57554;51.546;6.776;2023-07-13T07:02:50;14.80;;;4.07;;
70183;SDS011;57554;51.546;6.776;2023-07-13T07:05:16;11.88;;;4.05;;
70183;SDS011;57554;51.546;6.776;2023-07-13T07:07:41;11.85;;;3.80;;
70183;SDS011;57554;51.546;6.776;2023-07-13T07:10:07;10.98;;;3.95;;
70183;SDS011;57554;51.546;6.776;2023-07-13T07:12:33;11.75;;;3.78;;
70183;SDS011;57554;51.546;6.776;2023-07-13T07:14:59;11.65;;;4.05;;
70183;SDS011;57554;51.546;6.776;2023-07-13T07:17:24;13.93;;;3.83;;
70183;SDS011;57554;51.546;6.776;2023-07-13T07:19:51;11.68;;;3.50;;
70183;SDS011;57554;51.546;6.776;2023-07-13T07:22:19;13.63;;;3.90;;
70183;SDS011;57554;51.546;6.776;2023-07-13T07:24:45;13.00;;;3.63;;
70183;SDS011;57554;51.546;6.776;2023-07-13T07:27:10;12.30;;;4.05;;
70183;SDS011;57554;51.546;6.776;2023-07-13T07:29:36;15.70;;;3.97;;
70183;SDS011;57554;51.546;6.776;2023-07-13T07:32:02;15.30;;;3.92;;
70183;SDS011;57554;51.546;6.776;2023-07-13T07:34:27;14.38;;;4.03;;
70183;SDS011;57554;51.546;6.776;2023-07-13T07:36:53;14.82;;;4.30;;
70183;SDS011;57554;51.546;6.776;2023-07-13T07:39:19;14.15;;;3.70;;
70183;SDS011;57554;51.546;6.776;2023-07-13T07:41:45;14.55;;;4.07;;
70183;SDS011;57554;51.546;6.776;2023-07-13T07:44:10;11.00;;;3.67;;
70183;SDS011;57554;51.546;6.776;2023-07-13T07:46:36;12.15;;;4.10;;
70183;SDS011;57554;51.546;6.776;2023-07-13T07:49:01;16.00;;;4.68;;
70183;SDS011;57554;51.546;6.776;2023-07-13T07:51:27;12.80;;;3.80;;
70183;SDS011;57554;51.546;6.776;2023-07-13T07:53:53;12.18;;;3.63;;
70183;SDS011;57554;51.546;6.776;2023-07-13T07:56:18;11.95;;;3.50;;
70183;SDS011;57554;51.546;6.776;2023-07-13T07:58:44;13.40;;;3.53;;
70183;SDS011;57554;51.546;6.776;2023-07-13T08:01:10;12.23;;;3.53;;
70183;SDS011;57554;51.546;6.776;2023-07-13T08:03:35;11.05;;;3.60;;
70183;SDS011;57554;51.546;6.776;2023-07-13T08:06:01;15.45;;;4.20;;
70183;SDS011;57554;51.546;6.776;2023-07-13T08:08:26;14.25;;;4.07;;
70183;SDS011;57554;51.546;6.776;2023-07-13T08:10:52;13.35;;;4.13;;
70183;SDS011;57554;51.546;6.776;2023-07-13T08:13:18;9.93;;;4.10;;
70183;SDS011;57554;51.546;6.776;2023-07-13T08:15:44;14.52;;;4.53;;
70183;SDS011;57554;51.546;6.776;2023-07-13T08:18:11;13.73;;;3.17;;
70183;SDS011;57554;51.546;6.776;2023-07-13T08:20:39;13.32;;;3.50;;
70183;SDS011;57554;51.546;6.776;2023-07-13T08:23:06;11.88;;;3.60;;
70183;SDS011;57554;51.546;6.776;2023-07-13T08:25:33;11.98;;;3.55;;
70183;SDS011;57554;51.546;6.776;2023-07-13T08:27:59;9.35;;;3.55;;
70183;SDS011;57554;51.546;6.776;2023-07-13T08:30:25;9.93;;;4.07;;
70183;SDS011;57554;51.546;6.776;2023-07-13T08:32:51;11.38;;;4.20;;
70183;SDS011;57554;51.546;6.776;2023-07-13T08:35:17;11.75;;;3.53;;
70183;SDS011;57554;51.546;6.776;2023-07-13T08:37:43;12.80;;;3.97;;
70183;SDS011;57554;51.546;6.776;2023-07-13T08:40:09;14.85;;;3.75;;
70183;SDS011;57554;51.546;6.776;2023-07-13T08:42:37;14.65;;;4.05;;
70183;SDS011;57554;51.546;6.776;2023-07-13T08:45:14;10.93;;;4.30;;
70183;SDS011;57554;51.546;6.776;2023-07-13T08:47:52;11.30;;;3.80;;
70183;SDS011;57554;51.546;6.776;2023-07-13T08:50:23;10.50;;;3.97;;
70183;SDS011;57554;51.546;6.776;2023-07-13T08:52:53;12.52;;;3.42;;
70183;SDS011;57554;51.546;6.776;2023-07-13T08:55:22;11.73;;;4.00;;
70183;SDS011;57554;51.546;6.776;2023-07-13T08:57:55;13.05;;;3.97;;
70183;SDS011;57554;51.546;6.776;2023-07-13T09:00:31;7.68;;;3.00;;
70183;SDS011;57554;51.546;6.776;2023-07-13T09:05:52;10.77;;;3.60;;
70183;SDS011;57554;51.546;6.776;2023-07-13T09:08:50;9.02;;;3.65;;
70183;SDS011;57554;51.546;6.776;2023-07-13T09:11:45;10.32;;;3.67;;
70183;SDS011;57554;51.546;6.776;2023-07-13T09:14:34;12.20;;;4.00;;
70183;SDS011;57554;51.546;6.776;2023-07-13T09:17:10;12.07;;;3.47;;
70183;SDS011;57554;51.546;6.776;2023-07-13T09:19:51;10.90;;;3.60;;
70183;SDS011;57554;51.546;6.776;2023-07-13T09:22:21;12.65;;;3.33;;
70183;SDS011;57554;51.546;6.776;2023-07-13T09:24:54;10.75;;;3.38;;
70183;SDS011;57554;51.546;6.776;2023-07-13T09:27:31;9.27;;;3.13;;
70183;SDS011;57554;51.546;6.776;2023-07-13T09:30:15;12.73;;;3.25;;
70183;SDS011;57554;51.546;6.776;2023-07-13T09:32:50;15.02;;;3.40;;
70183;SDS011;57554;51.546;6.776;2023-07-13T09:35:23;10.27;;;2.88;;
70183;SDS011;57554;51.546;6.776;2023-07-13T09:37:53;9.18;;;2.97;;
70183;SDS011;57554;51.546;6.776;2023-07-13T09:43:24;10.50;;;3.28;;
70183;SDS011;57554;51.546;6.776;2023-07-13T09:45:50;10.32;;;2.97;;
70183;SDS011;57554;51.546;6.776;2023-07-13T09:48:16;10.57;;;3.10;;
70183;SDS011;57554;51.546;6.776;2023-07-13T09:50:43;9.30;;;3.08;;
70183;SDS011;57554;51.546;6.776;2023-07-13T09:53:17;9.93;;;2.67;;
70183;SDS011;57554;51.546;6.776;2023-07-13T09:55:45;12.85;;;3.20;;
70183;SDS011;57554;51.546;6.776;2023-07-13T09:58:19;10.85;;;3.08;;
70183;SDS011;57554;51.546;6.776;2023-07-13T10:01:03;8.82;;;2.90;;
70183;SDS011;57554;51.546;6.776;2023-07-13T10:03:30;10.73;;;2.90;;
70183;SDS011;57554;51.546;6.776;2023-07-13T10:06:12;8.00;;;2.80;;
70183;SDS011;57554;51.546;6.776;2023-07-13T10:08:43;9.02;;;2.92;;
70183;SDS011;57554;51.546;6.776;2023-07-13T10:16:25;10.98;;;2.72;;
70183;SDS011;57554;51.546;6.776;2023-07-13T10:18:58;9.18;;;3.20;;
70183;SDS011;57554;51.546;6.776;2023-07-13T10:21:29;10.07;;;2.85;;
70183;SDS011;57554;51.546;6.776;2023-07-13T10:24:12;10.93;;;3.20;;
70183;SDS011;57554;51.546;6.776;2023-07-13T10:27:28;9.65;;;3.28;;
70183;SDS011;57554;51.546;6.776;2023-07-13T10:29:42;11.15;;;2.55;;
70183;SDS011;57554;51.546;6.776;2023-07-13T10:32:19;11.27;;;2.70;;
70183;SDS011;57554;51.546;6.776;2023-07-13T10:34:48;8.25;;;2.40;;
70183;SDS011;57554;51.546;6.776;2023-07-13T10:37:20;9.63;;;2.70;;
70183;SDS011;57554;51.546;6.776;2023-07-13T10:39:50;11.38;;;2.65;;
70183;SDS011;57554;51.546;6.776;2023-07-13T10:42:23;10.70;;;2.70;;
70183;SDS011;57554;51.546;6.776;2023-07-13T10:44:55;12.73;;;2.70;;
70183;SDS011;57554;51.546;6.776;2023-07-13T10:47:21;7.40;;;2.50;;
70183;SDS011;57554;51.546;6.776;2023-07-13T10:49:49;9.07;;;2.50;;
70183;SDS011;57554;51.546;6.776;2023-07-13T10:55:30;9.65;;;2.50;;
70183;SDS011;57554;51.546;6.776;2023-07-13T10:58:20;6.10;;;2.05;;
70183;SDS011;57554;51.546;6.776;2023-07-13T11:03:27;6.47;;;2.10;;
70183;SDS011;57554;51.546;6.776;2023-07-13T11:13:59;7.85;;;2.10;;
70183;SDS011;57554;51.546;6.776;2023-07-13T11:16:42;7.78;;;2.22;;
70183;SDS011;57554;51.546;6.776;2023-07-13T11:32:35;6.80;;;1.98;;
70183;SDS011;57554;51.546;6.776;2023-07-13T11:35:01;7.25;;;1.98;;
70183;SDS011;57554;51.546;6.776;2023-07-13T11:37:27;6.55;;;2.03;;
70183;SDS011;57554;51.546;6.776;2023-07-13T11:39:55;9.35;;;2.15;;
70183;SDS011;57554;51.546;6.776;2023-07-13T11:42:20;10.48;;;2.35;;
70183;SDS011;57554;51.546;6.776;2023-07-13T11:44:48;8.85;;;2.00;;
70183;SDS011;57554;51.546;6.776;2023-07-13T11:47:17;6.65;;;2.15;;
70183;SDS011;57554;51.546;6.776;2023-07-13T11:49:49;7.43;;;2.13;;
70183;SDS011;57554;51.546;6.776;2023-07-13T11:52:22;8.48;;;1.95;;
70183;SDS011;57554;51.546;6.776;2023-07-13T11:54:53;6.78;;;2.08;;
70183;SDS011;57554;51.546;6.776;2023-07-13T11:57:30;8.23;;;2.13;;
70183;SDS011;57554;51.546;6.776;2023-07-13T11:59:59;7.75;;;1.98;;
70183;SDS011;57554;51.546;6.776;2023-07-13T12:02:42;9.18;;;2.17;;
70183;SDS011;57554;51.546;6.776;2023-07-13T12:05:12;10.27;;;1.77;;
70183;SDS011;57554;51.546;6.776;2023-07-13T12:07:40;7.93;;;1.67;;
70183;SDS011;57554;51.546;6.776;2023-07-13T12:12:34;8.00;;;2.00;;
70183;SDS011;57554;51.546;6.776;2023-07-13T12:15:04;6.43;;;1.80;;
70183;SDS011;57554;51.546;6.776;2023-07-13T12:17:34;5.75;;;1.98;;
70183;SDS011;57554;51.546;6.776;2023-07-13T12:20:01;7.22;;;1.70;;
70183;SDS011;57554;51.546;6.776;2023-07-13T12:22:45;7.82;;;1.88;;
70183;SDS011;57554;51.546;6.776;2023-07-13T12:25:14;8.25;;;1.83;;
70183;SDS011;57554;51.546;6.776;2023-07-13T12:27:40;5.95;;;1.75;;
70183;SDS011;57554;51.546;6.776;2023-07-13T12:35:50;10.45;;;2.22;;
70183;SDS011;57554;51.546;6.776;2023-07-13T12:38:17;9.75;;;2.03;;
70183;SDS011;57554;51.546;6.776;2023-07-13T12:40:45;5.53;;;2.05;;
70183;SDS011;57554;51.546;6.776;2023-07-13T12:43:15;10.05;;;1.85;;
70183;SDS011;57554;51.546;6.776;2023-07-13T12:46:01;5.68;;;1.85;;
70183;SDS011;57554;51.546;6.776;2023-07-13T12:48:29;10.82;;;2.20;;
70183;SDS011;57554;51.546;6.776;2023-07-13T12:50:55;13.73;;;2.22;;
70183;SDS011;57554;51.546;6.776;2023-07-13T12:53:28;9.68;;;2.60;;
70183;SDS011;57554;51.546;6.776;2023-07-13T12:55:57;9.82;;;2.40;;
70183;SDS011;57554;51.546;6.776;2023-07-13T12:58:28;7.43;;;2.60;;
70183;SDS011;57554;51.546;6.776;2023-07-13T13:00:58;5.10;;;1.98;;
70183;SDS011;57554;51.546;6.776;2023-07-13T13:08:28;6.55;;;2.50;;
70183;SDS011;57554;51.546;6.776;2023-07-13T13:10:54;6.55;;;2.63;;
70183;SDS011;57554;51.546;6.776;2023-07-13T13:13:19;8.05;;;2.30;;
70183;SDS011;57554;51.546;6.776;2023-07-13T13:15:45;6.75;;;2.20;;
70183;SDS011;57554;51.546;6.776;2023-07-13T13:18:18;8.10;;;2.50;;
70183;SDS011;57554;51.546;6.776;2023-07-13T13:20:45;8.85;;;3.17;;
70183;SDS011;57554;51.546;6.776;2023-07-13T13:23:15;9.60;;;2.85;;
70183;SDS011;57554;51.546;6.776;2023-07-13T13:28:18;9.80;;;2.83;;
70183;SDS011;57554;51.546;6.776;2023-07-13T13:30:46;10.52;;;3.42;;
70183;SDS011;57554;51.546;6.776;2023-07-13T13:33:15;8.23;;;3.30;;
70183;SDS011;57554;51.546;6.776;2023-07-13T13:35:43;8.93;;;3.08;;
70183;SDS011;57554;51.546;6.776;2023-07-13T13:38:13;9.55;;;3.15;;
70183;SDS011;57554;51.546;6.776;2023-07-13T13:40:40;7.30;;;3.60;;
70183;SDS011;57554;51.546;6.776;2023-07-13T13:43:14;6.28;;;3.17;;
70183;SDS011;57554;51.546;6.776;2023-07-13T13:45:41;7.63;;;3.03;;
70183;SDS011;57554;51.546;6.776;2023-07-13T13:48:12;8.57;;;3.15;;
70183;SDS011;57554;51.546;6.776;2023-07-13T13:50:43;7.32;;;3.17;;
70183;SDS011;57554;51.546;6.776;2023-07-13T13:53:12;8.75;;;3.88;;
70183;SDS011;57554;51.546;6.776;2023-07-13T13:55:38;11.30;;;3.28;;
70183;SDS011;57554;51.546;6.776;2023-07-13T13:58:04;8.23;;;3.03;;
70183;SDS011;57554;51.546;6.776;2023-07-13T14:00:31;7.97;;;3.63;;
70183;SDS011;57554;51.546;6.776;2023-07-13T14:02:56;10.45;;;3.85;;
70183;SDS011;57554;51.546;6.776;2023-07-13T14:05:23;8.50;;;4.00;;
70183;SDS011;57554;51.546;6.776;2023-07-13T14:07:52;9.75;;;3.90;;
70183;SDS011;57554;51.546;6.776;2023-07-13T14:10:19;9.43;;;4.30;;
70183;SDS011;57554;51.546;6.776;2023-07-13T14:12:46;9.07;;;4.40;;
70183;SDS011;57554;51.546;6.776;2023-07-13T14:17:48;9.73;;;4.43;;
70183;SDS011;57554;51.546;6.776;2023-07-13T14:20:15;9.75;;;3.83;;
70183;SDS011;57554;51.546;6.776;2023-07-13T14:22:42;6.93;;;3.35;;
70183;SDS011;57554;51.546;6.776;2023-07-13T14:25:12;9.38;;;3.08;;
70183;SDS011;57554;51.546;6.776;2023-07-13T14:27:39;6.88;;;2.28;;
70183;SDS011;57554;51.546;6.776;2023-07-13T14:30:24;9.68;;;2.90;;
70183;SDS011;57554;51.546;6.776;2023-07-13T14:32:50;5.93;;;1.92;;
70183;SDS011;57554;51.546;6.776;2023-07-13T14:35:17;5.93;;;2.35;;
70183;SDS011;57554;51.546;6.776;2023-07-13T14:37:45;6.40;;;2.20;;
70183;SDS011;57554;51.546;6.776;2023-07-13T14:42:42;6.90;;;2.33;;
70183;SDS011;57554;51.546;6.776;2023-07-13T14:45:12;7.55;;;2.00;;
70183;SDS011;57554;51.546;6.776;2023-07-13T14:47:42;6.45;;;2.20;;
70183;SDS011;57554;51.546;6.776;2023-07-13T14:50:12;8.48;;;2.30;;
70183;SDS011;57554;51.546;6.776;2023-07-13T14:52:55;7.72;;;2.72;;
70183;SDS011;57554;51.546;6.776;2023-07-13T14:55:21;6.93;;;2.40;;
70183;SDS011;57554;51.546;6.776;2023-07-13T14:57:46;6.60;;;2.53;;
70183;SDS011;57554;51.546;6.776;2023-07-13T15:00:16;7.80;;;2.30;;
70183;SDS011;57554;51.546;6.776;2023-07-13T15:02:50;4.95;;;2.22;;
70183;SDS011;57554;51.546;6.776;2023-07-13T15:05:20;6.85;;;2.20;;
70183;SDS011;57554;51.546;6.776;2023-07-13T15:07:51;5.57;;;2.20;;
70183;SDS011;57554;51.546;6.776;2023-07-13T15:12:45;9.82;;;2.95;;
70183;SDS011;57554;51.546;6.776;2023-07-13T15:15:11;7.85;;;3.17;;
70183;SDS011;57554;51.546;6.776;2023-07-13T15:17:39;5.60;;;2.83;;
70183;SDS011;57554;51.546;6.776;2023-07-13T15:20:15;6.47;;;3.05;;
70183;SDS011;57554;51.546;6.776;2023-07-13T15:22:44;10.38;;;3.10;;
70183;SDS011;57554;51.546;6.776;2023-07-13T15:25:14;7.93;;;3.05;;
70183;SDS011;57554;51.546;6.776;2023-07-13T15:27:45;9.20;;;3.45;;
70183;SDS011;57554;51.546;6.776;2023-07-13T15:30:11;7.93;;;3.47;;
70183;SDS011;57554;51.546;6.776;2023-07-13T15:32:38;9.45;;;3.45;;
70183;SDS011;57554;51.546;6.776;2023-07-13T15:35:04;8.32;;;3.08;;
70183;SDS011;57554;51.546;6.776;2023-07-13T15:37:30;7.60;;;3.45;;
70183;SDS011;57554;51.546;6.776;2023-07-13T15:39:56;6.35;;;2.67;;
70183;SDS011;57554;51.546;6.776;2023-07-13T15:42:22;8.80;;;3.20;;
70183;SDS011;57554;51.546;6.776;2023-07-13T15:44:48;11.27;;;3.63;;
70183;SDS011;57554;51.546;6.776;2023-07-13T15:47:14;8.70;;;3.28;;
70183;SDS011;57554;51.546;6.776;2023-07-13T15:49:41;10.15;;;2.65;;
70183;SDS011;57554;51.546;6.776;2023-07-13T15:52:11;8.77;;;2.75;;